KBYG

Johnson County Airport

Buffalo, Wyoming, USA
METAR KBYG 140053Z AUTO 31004KT 10SM CLR 01/M12 A3008 RMK AO2 SLP211 T00061117
Observed Flight Rules
Dec-14 @ 00:53 UTC (an hour ago) Visual Flight Rules
Wind Visibility Clouds
310° at 4 knots 10 miles
  • Clear skies
Temperatures Readings
Current 1°C / 34°F
Dewpoint -12°C / 10°F
Humidity 38%
Altimeter 30.08" Hg
Pressure 1021.1 hPa
Elevation 1497
METAR KBYG 140053Z AUTO 31004KT 10SM CLR 01/M12 A3008 RMK AO2 SLP211 T00061117
Observed Flight Rules
Dec-14 @ 00:53 UTC
(an hour ago)
VFR
Wind Visibility
310° at 4 knots 10 miles
Clouds
  • Clear skies
Temperature Dewpoint
1°C / 34°F -12°C / 10°F
Humidity Altimeter Pressure
38% 30.08" Hg 1021.1 hPa